Time;durP1;ratioP1;P1;durP2;ratioP2;P2;SDS_P1;SDS_P2;PMS_P1;PMS_P2;Temp;Humidity;BMP_temperature;BMP_pressure;BME280_temperature;BME280_humidity;BME280_pressure;Samples;Min_cycle;Max_cycle;Signal;HPM_P1;HPM_P2
2022/02/27 00:01:41;;;;;;;4.70;2.17;;;;;;;;;;4943711;28;20217;-73
2022/02/27 00:04:06;;;;;;;5.47;2.03;;;;;;;;;;4934381;28;20245;-72
2022/02/27 00:06:35;;;;;;;3.67;2.40;;;;;;;;;;4960482;28;20701;-72
2022/02/27 00:09:00;;;;;;;3.33;2.30;;;;;;;;;;4934926;28;20225;-72
2022/02/27 00:11:28;;;;;;;3.80;2.37;;;;;;;;;;4957375;28;20226;-72
2022/02/27 00:13:59;;;;;;;3.43;2.33;;;;;;;;;;4949867;28;20830;-72
2022/02/27 00:16:24;;;;;;;3.50;2.40;;;;;;;;;;4952072;28;20280;-72
2022/02/27 00:18:52;;;;;;;6.73;2.47;;;;;;;;;;4947894;28;20222;-72
2022/02/27 00:21:17;;;;;;;3.57;2.10;;;;;;;;;;4967739;28;20221;-72
2022/02/27 00:23:45;;;;;;;3.07;2.07;;;;;;;;;;4941644;28;20244;-72
2022/02/27 00:26:11;;;;;;;4.57;2.13;;;;;;;;;;4978314;28;20226;-72
2022/02/27 00:28:36;;;;;;;4.23;2.20;;;;;;;;;;4939772;28;20229;-74
2022/02/27 00:31:02;;;;;;;4.73;2.37;;;;;;;;;;4943303;28;20316;-73
2022/02/27 00:33:27;;;;;;;3.17;1.93;;;;;;;;;;4966196;28;20912;-73
2022/02/27 00:35:53;;;;;;;4.17;2.33;;;;;;;;;;4966004;28;20246;-73
2022/02/27 00:38:18;;;;;;;5.23;2.50;;;;;;;;;;4954451;28;20259;-73
2022/02/27 00:40:46;;;;;;;4.63;2.43;;;;;;;;;;4965529;28;20237;-74
2022/02/27 00:43:14;;;;;;;4.90;2.33;;;;;;;;;;4964457;28;20218;-73
2022/02/27 00:45:39;;;;;;;4.40;2.70;;;;;;;;;;4951809;28;20310;-73
2022/02/27 00:48:08;;;;;;;4.10;2.87;;;;;;;;;;4925064;28;20221;-73
2022/02/27 00:50:38;;;;;;;6.73;3.07;;;;;;;;;;4976653;28;20250;-72
2022/02/27 00:53:08;;;;;;;5.37;2.77;;;;;;;;;;4926233;28;20227;-73
2022/02/27 00:55:34;;;;;;;5.27;3.00;;;;;;;;;;4967377;28;20288;-74
2022/02/27 00:58:00;;;;;;;4.30;2.60;;;;;;;;;;4964222;28;20595;-73
2022/02/27 01:00:28;;;;;;;4.53;2.63;;;;;;;;;;4935656;28;20597;-73
2022/02/27 01:02:58;;;;;;;4.13;2.80;;;;;;;;;;4949056;28;20240;-73
2022/02/27 01:05:28;;;;;;;3.53;2.37;;;;;;;;;;4950259;28;20241;-72
2022/02/27 01:07:58;;;;;;;4.40;2.40;;;;;;;;;;4951668;28;20217;-72
2022/02/27 01:10:26;;;;;;;7.80;2.40;;;;;;;;;;4933910;28;20233;-72
2022/02/27 01:12:54;;;;;;;4.73;2.60;;;;;;;;;;4946916;28;20246;-73
2022/02/27 01:15:24;;;;;;;3.50;2.70;;;;;;;;;;4957544;28;20233;-73
2022/02/27 01:17:51;;;;;;;5.90;2.63;;;;;;;;;;4941970;28;20219;-73
2022/02/27 01:20:19;;;;;;;3.33;2.50;;;;;;;;;;4949510;28;20226;-72
2022/02/27 01:22:47;;;;;;;4.10;2.37;;;;;;;;;;4946738;28;20292;-73
2022/02/27 01:25:14;;;;;;;5.93;2.70;;;;;;;;;;4934302;28;20221;-73
2022/02/27 01:27:40;;;;;;;5.27;2.67;;;;;;;;;;4948417;28;20705;-73
2022/02/27 01:30:11;;;;;;;5.83;2.57;;;;;;;;;;4950874;28;20303;-73
2022/02/27 01:32:41;;;;;;;4.30;2.90;;;;;;;;;;4956385;28;20273;-72
2022/02/27 01:35:07;;;;;;;4.23;2.63;;;;;;;;;;4963855;28;20230;-72
2022/02/27 01:37:37;;;;;;;5.67;2.73;;;;;;;;;;4935690;28;20308;-74
2022/02/27 01:40:03;;;;;;;3.43;2.40;;;;;;;;;;4948211;28;20234;-74
2022/02/27 01:42:29;;;;;;;4.93;2.50;;;;;;;;;;4950913;28;20226;-74
2022/02/27 01:44:57;;;;;;;4.80;2.50;;;;;;;;;;4932077;28;20372;-73
2022/02/27 01:47:25;;;;;;;4.33;2.70;;;;;;;;;;4942207;28;20225;-73
2022/02/27 01:49:51;;;;;;;4.07;2.20;;;;;;;;;;4949128;28;20639;-73
2022/02/27 01:52:19;;;;;;;4.87;2.83;;;;;;;;;;4964177;28;20253;-72
2022/02/27 01:54:47;;;;;;;8.33;2.83;;;;;;;;;;4957983;28;20279;-72
2022/02/27 01:57:17;;;;;;;5.57;2.83;;;;;;;;;;4925472;28;20226;-73
2022/02/27 01:59:43;;;;;;;4.37;2.97;;;;;;;;;;4972572;28;20225;-72
2022/02/27 02:02:09;;;;;;;5.57;2.80;;;;;;;;;;4970317;28;20252;-73
2022/02/27 02:04:41;;;;;;;4.90;2.93;;;;;;;;;;4940408;28;20229;-72
2022/02/27 02:07:09;;;;;;;4.30;2.60;;;;;;;;;;4941541;28;20221;-72
2022/02/27 02:09:34;;;;;;;4.47;2.97;;;;;;;;;;4954426;28;20343;-73
2022/02/27 02:12:06;;;;;;;6.53;3.07;;;;;;;;;;4944977;28;20226;-74
2022/02/27 02:14:35;;;;;;;6.17;3.13;;;;;;;;;;4971780;28;20612;-74
2022/02/27 02:17:03;;;;;;;7.37;3.20;;;;;;;;;;4940481;28;20288;-73
2022/02/27 02:19:30;;;;;;;5.13;3.30;;;;;;;;;;4944419;28;20252;-73
2022/02/27 02:22:15;;;;;;;6.30;3.27;;;;;;;;;;4967851;28;20304;-72
2022/02/27 02:24:46;;;;;;;4.83;3.10;;;;;;;;;;4935942;28;20717;-72
2022/02/27 02:27:12;;;;;;;6.13;3.23;;;;;;;;;;4949644;28;20224;-72
2022/02/27 02:29:38;;;;;;;7.40;3.30;;;;;;;;;;4941659;28;20214;-73
2022/02/27 02:32:10;;;;;;;6.77;3.63;;;;;;;;;;4949416;28;20229;-73
2022/02/27 02:34:37;;;;;;;5.50;3.40;;;;;;;;;;4965731;28;20799;-75
2022/02/27 02:37:03;;;;;;;6.10;3.30;;;;;;;;;;4963425;28;20304;-74
2022/02/27 02:39:33;;;;;;;5.97;3.13;;;;;;;;;;4950118;28;20228;-74
2022/02/27 02:41:59;;;;;;;4.97;3.33;;;;;;;;;;4931783;28;20225;-73
2022/02/27 02:44:39;;;;;;;5.40;3.20;;;;;;;;;;4925045;28;20221;-73
2022/02/27 02:47:05;;;;;;;5.33;3.40;;;;;;;;;;4949789;28;20221;-73
2022/02/27 02:49:34;;;;;;;5.40;3.40;;;;;;;;;;4941846;28;20593;-73
2022/02/27 02:52:00;;;;;;;5.53;3.50;;;;;;;;;;4979771;28;20627;-73
2022/02/27 02:54:28;;;;;;;5.27;3.30;;;;;;;;;;4932317;28;20230;-73
2022/02/27 02:56:55;;;;;;;4.87;3.37;;;;;;;;;;4935316;28;20224;-73
2022/02/27 02:59:24;;;;;;;6.73;3.43;;;;;;;;;;4939022;28;20225;-73
2022/02/27 03:01:54;;;;;;;4.93;3.60;;;;;;;;;;4945694;28;20217;-74
2022/02/27 03:04:20;;;;;;;6.20;3.50;;;;;;;;;;4957711;28;20604;-73
2022/02/27 03:06:45;;;;;;;6.37;3.53;;;;;;;;;;4949097;28;20206;-73
2022/02/27 03:09:11;;;;;;;6.63;3.47;;;;;;;;;;4940415;28;20257;-73
2022/02/27 03:11:37;;;;;;;8.00;3.60;;;;;;;;;;4963861;28;20249;-73
2022/02/27 03:14:02;;;;;;;6.73;4.10;;;;;;;;;;4931684;28;20304;-73
2022/02/27 03:16:30;;;;;;;6.83;3.33;;;;;;;;;;4940784;28;20232;-73
2022/02/27 03:18:56;;;;;;;5.63;3.50;;;;;;;;;;4966083;28;20225;-73
2022/02/27 03:21:24;;;;;;;5.00;3.60;;;;;;;;;;4929955;28;20684;-73
2022/02/27 03:23:52;;;;;;;7.73;4.03;;;;;;;;;;4950527;28;20221;-73
2022/02/27 03:26:18;;;;;;;7.07;3.37;;;;;;;;;;4926066;29;20214;-73
2022/02/27 03:28:48;;;;;;;6.03;3.97;;;;;;;;;;4947355;28;20650;-73
2022/02/27 03:31:15;;;;;;;7.40;3.90;;;;;;;;;;4981665;28;20831;-73
2022/02/27 03:33:43;;;;;;;7.47;3.80;;;;;;;;;;4949027;28;20291;-73
2022/02/27 03:36:15;;;;;;;9.57;3.40;;;;;;;;;;4936994;28;20233;-73
2022/02/27 03:38:41;;;;;;;4.63;3.67;;;;;;;;;;4957357;28;20279;-73
2022/02/27 03:41:13;;;;;;;6.70;3.87;;;;;;;;;;4966138;28;20217;-73
2022/02/27 03:43:46;;;;;;;5.93;3.40;;;;;;;;;;4985364;28;20221;-73
2022/02/27 03:46:16;;;;;;;4.80;3.77;;;;;;;;;;4980885;28;20222;-73
2022/02/27 03:48:44;;;;;;;8.50;4.30;;;;;;;;;;4976895;28;20229;-73
2022/02/27 03:51:14;;;;;;;6.40;4.00;;;;;;;;;;4932076;28;20242;-74
2022/02/27 03:53:40;;;;;;;8.77;4.13;;;;;;;;;;4947852;28;20249;-72
2022/02/27 03:56:08;;;;;;;6.47;3.97;;;;;;;;;;4971106;28;20291;-73
2022/02/27 03:58:34;;;;;;;8.13;4.43;;;;;;;;;;4949969;28;20252;-73
2022/02/27 04:01:04;;;;;;;6.93;4.53;;;;;;;;;;4950403;28;20652;-73
2022/02/27 04:03:29;;;;;;;6.50;4.50;;;;;;;;;;4960513;28;20237;-73
2022/02/27 04:05:55;;;;;;;6.97;4.63;;;;;;;;;;4969157;28;20280;-73
2022/02/27 04:08:25;;;;;;;6.90;4.80;;;;;;;;;;4951150;28;20222;-73
2022/02/27 04:10:53;;;;;;;9.93;5.03;;;;;;;;;;4953680;28;20222;-73
2022/02/27 04:13:19;;;;;;;6.67;4.70;;;;;;;;;;4957935;28;20226;-73
2022/02/27 04:15:44;;;;;;;9.23;4.77;;;;;;;;;;4950857;28;20775;-72
2022/02/27 04:18:12;;;;;;;6.90;4.67;;;;;;;;;;4951356;28;20225;-73
2022/02/27 04:20:41;;;;;;;11.80;4.73;;;;;;;;;;4942688;28;20241;-73
2022/02/27 04:23:07;;;;;;;8.27;4.63;;;;;;;;;;4963713;28;20221;-72
2022/02/27 04:25:33;;;;;;;7.47;4.73;;;;;;;;;;4946802;28;20754;-72
2022/02/27 04:27:58;;;;;;;8.33;4.90;;;;;;;;;;4961979;28;20223;-74
2022/02/27 04:30:23;;;;;;;8.67;4.87;;;;;;;;;;5082344;23;20280;-72
2022/02/27 04:32:51;;;;;;;8.63;4.90;;;;;;;;;;4973851;28;20245;-72
2022/02/27 04:35:19;;;;;;;7.17;4.77;;;;;;;;;;4936379;28;20231;-71
2022/02/27 04:37:44;;;;;;;10.33;5.20;;;;;;;;;;4952778;28;20226;-73
2022/02/27 04:40:10;;;;;;;8.23;4.73;;;;;;;;;;4932844;29;20221;-73
2022/02/27 04:42:36;;;;;;;8.07;4.73;;;;;;;;;;4921538;28;20371;-73
2022/02/27 04:45:02;;;;;;;10.03;5.20;;;;;;;;;;4924299;28;20321;-73
2022/02/27 04:47:27;;;;;;;9.53;5.17;;;;;;;;;;4932645;28;20245;-73
2022/02/27 04:49:55;;;;;;;8.67;5.63;;;;;;;;;;4939146;28;20258;-74
2022/02/27 04:52:23;;;;;;;6.27;4.73;;;;;;;;;;4938587;28;20251;-73
2022/02/27 04:54:51;;;;;;;7.87;5.27;;;;;;;;;;4947502;28;20313;-73
2022/02/27 04:57:16;;;;;;;7.10;5.07;;;;;;;;;;4931646;28;20215;-73
2022/02/27 04:59:44;;;;;;;8.47;4.70;;;;;;;;;;4964317;28;20309;-73
2022/02/27 05:02:10;;;;;;;7.47;4.50;;;;;;;;;;4949366;28;20305;-73
2022/02/27 05:04:35;;;;;;;6.83;4.60;;;;;;;;;;4965075;28;20219;-73
2022/02/27 05:07:04;;;;;;;8.07;4.73;;;;;;;;;;4937954;28;20219;-73
2022/02/27 05:09:33;;;;;;;7.83;4.80;;;;;;;;;;4948128;28;20221;-73
2022/02/27 05:11:59;;;;;;;7.73;4.93;;;;;;;;;;4941126;28;20233;-73
2022/02/27 05:14:29;;;;;;;6.63;4.60;;;;;;;;;;4930537;28;20238;-73
2022/02/27 05:16:57;;;;;;;8.13;4.70;;;;;;;;;;4924431;28;20218;-73
2022/02/27 05:19:22;;;;;;;8.00;4.90;;;;;;;;;;4962436;28;20297;-73
2022/02/27 05:21:53;;;;;;;11.50;5.20;;;;;;;;;;4965014;28;20653;-73
2022/02/27 05:24:22;;;;;;;8.77;5.77;;;;;;;;;;4954461;28;20261;-72
2022/02/27 05:26:48;;;;;;;9.27;5.50;;;;;;;;;;4924584;28;20221;-73
2022/02/27 05:29:13;;;;;;;7.90;5.03;;;;;;;;;;4963480;28;20282;-73
2022/02/27 05:31:41;;;;;;;5.27;4.77;;;;;;;;;;4966744;28;20226;-73
2022/02/27 05:34:08;;;;;;;7.13;5.20;;;;;;;;;;4950658;28;20305;-73
2022/02/27 05:36:34;;;;;;;10.50;5.57;;;;;;;;;;4941415;28;20388;-73
2022/02/27 05:39:00;;;;;;;7.83;5.00;;;;;;;;;;4955598;28;20297;-73
2022/02/27 05:41:26;;;;;;;8.77;5.87;;;;;;;;;;4953181;28;20728;-73
2022/02/27 05:43:52;;;;;;;9.80;5.70;;;;;;;;;;4949293;28;20218;-73
2022/02/27 05:46:17;;;;;;;10.70;5.70;;;;;;;;;;4931878;28;20229;-73
2022/02/27 05:48:45;;;;;;;9.03;5.53;;;;;;;;;;4966823;28;20731;-73
2022/02/27 05:51:13;;;;;;;9.53;5.60;;;;;;;;;;4920409;28;20231;-73
2022/02/27 05:53:40;;;;;;;8.27;5.47;;;;;;;;;;4954388;28;20222;-73
2022/02/27 05:56:08;;;;;;;9.17;5.33;;;;;;;;;;4920076;28;20242;-73
2022/02/27 05:58:39;;;;;;;8.23;5.63;;;;;;;;;;4955748;28;20288;-73
2022/02/27 06:01:08;;;;;;;10.00;5.57;;;;;;;;;;4943510;28;20230;-72
2022/02/27 06:03:36;;;;;;;9.47;5.80;;;;;;;;;;4963054;28;20218;-73
2022/02/27 06:06:04;;;;;;;8.87;5.67;;;;;;;;;;4951274;28;20246;-73
2022/02/27 06:08:36;;;;;;;11.23;6.20;;;;;;;;;;4951118;28;20222;-73
2022/02/27 06:11:04;;;;;;;11.63;6.07;;;;;;;;;;4951588;28;20225;-72
2022/02/27 06:13:30;;;;;;;8.47;5.80;;;;;;;;;;4937935;29;20223;-73
2022/02/27 06:15:57;;;;;;;10.87;5.93;;;;;;;;;;4946906;28;20237;-72
2022/02/27 06:18:25;;;;;;;11.73;6.13;;;;;;;;;;4937613;28;20301;-73
2022/02/27 06:20:50;;;;;;;9.00;5.97;;;;;;;;;;4930756;28;20701;-73
2022/02/27 06:23:16;;;;;;;9.87;6.43;;;;;;;;;;4964947;28;20268;-71
2022/02/27 06:25:41;;;;;;;10.80;6.07;;;;;;;;;;4962532;28;20222;-72
2022/02/27 06:28:07;;;;;;;9.83;6.30;;;;;;;;;;4947215;28;20271;-72
2022/02/27 06:30:33;;;;;;;14.47;6.73;;;;;;;;;;4962682;28;20226;-72
2022/02/27 06:33:01;;;;;;;11.43;6.73;;;;;;;;;;4951449;28;20219;-72
2022/02/27 06:35:27;;;;;;;10.90;6.37;;;;;;;;;;4935496;28;20242;-72
2022/02/27 06:37:53;;;;;;;11.97;7.03;;;;;;;;;;4922082;28;20336;-72
2022/02/27 06:40:21;;;;;;;8.33;6.30;;;;;;;;;;4962155;28;20270;-73
2022/02/27 06:42:48;;;;;;;11.93;6.53;;;;;;;;;;4960474;28;20230;-72
2022/02/27 06:45:14;;;;;;;11.30;7.47;;;;;;;;;;4930317;28;20226;-72
2022/02/27 06:47:42;;;;;;;11.20;8.23;;;;;;;;;;4945071;28;20704;-72
2022/02/27 06:50:10;;;;;;;10.70;7.17;;;;;;;;;;4946037;28;20218;-72
2022/02/27 06:52:41;;;;;;;11.00;6.53;;;;;;;;;;4953565;28;20235;-73
2022/02/27 06:55:09;;;;;;;12.60;6.70;;;;;;;;;;4920600;28;20234;-73
2022/02/27 06:57:37;;;;;;;9.57;6.33;;;;;;;;;;4945489;28;20225;-73
2022/02/27 07:00:09;;;;;;;9.67;6.07;;;;;;;;;;4921480;28;20222;-73
2022/02/27 07:02:39;;;;;;;8.90;6.53;;;;;;;;;;4935606;29;20309;-73
2022/02/27 07:05:07;;;;;;;12.60;6.93;;;;;;;;;;4930275;28;20241;-73
2022/02/27 07:07:35;;;;;;;9.90;6.73;;;;;;;;;;4945178;28;20226;-73
2022/02/27 07:10:05;;;;;;;9.43;6.77;;;;;;;;;;4955818;28;20701;-73
2022/02/27 07:12:32;;;;;;;9.70;6.17;;;;;;;;;;4919806;28;20614;-72
2022/02/27 07:15:00;;;;;;;10.43;6.37;;;;;;;;;;4955225;28;20269;-72
2022/02/27 07:17:30;;;;;;;12.07;6.60;;;;;;;;;;4951623;28;20232;-73
2022/02/27 07:19:58;;;;;;;10.10;6.50;;;;;;;;;;4938158;28;20225;-73
2022/02/27 07:22:26;;;;;;;10.73;7.03;;;;;;;;;;4960849;28;20566;-73
2022/02/27 07:24:58;;;;;;;12.57;7.33;;;;;;;;;;4947330;28;20218;-74
2022/02/27 07:27:24;;;;;;;10.83;6.50;;;;;;;;;;4936084;28;20692;-73
2022/02/27 07:29:49;;;;;;;10.33;6.47;;;;;;;;;;4949983;29;20239;-74
2022/02/27 07:32:15;;;;;;;10.17;6.73;;;;;;;;;;4920937;28;20241;-73
2022/02/27 07:34:43;;;;;;;9.93;6.53;;;;;;;;;;4947243;28;20230;-72
2022/02/27 07:37:08;;;;;;;12.60;6.87;;;;;;;;;;4961724;28;20236;-73
2022/02/27 07:39:36;;;;;;;10.50;6.83;;;;;;;;;;4964369;28;20217;-72
2022/02/27 07:42:04;;;;;;;8.77;6.47;;;;;;;;;;4944054;28;20227;-73
2022/02/27 07:44:29;;;;;;;10.13;6.60;;;;;;;;;;4964275;28;20214;-72
2022/02/27 07:46:55;;;;;;;9.40;6.57;;;;;;;;;;4945119;28;20257;-72
2022/02/27 07:49:21;;;;;;;10.53;6.63;;;;;;;;;;4930225;28;20225;-73
2022/02/27 07:51:46;;;;;;;9.30;5.77;;;;;;;;;;4918351;28;20257;-73
2022/02/27 07:54:12;;;;;;;11.70;7.07;;;;;;;;;;4952827;28;20308;-73
2022/02/27 07:56:40;;;;;;;10.57;6.63;;;;;;;;;;4963712;28;20226;-73
2022/02/27 07:59:05;;;;;;;8.97;6.37;;;;;;;;;;4958401;28;20217;-73
2022/02/27 08:01:33;;;;;;;9.83;6.33;;;;;;;;;;4951228;28;20219;-73
2022/02/27 08:04:03;;;;;;;8.10;5.77;;;;;;;;;;4944156;28;20842;-73
2022/02/27 08:06:37;;;;;;;11.60;6.17;;;;;;;;;;4918955;28;20227;-73
2022/02/27 08:09:07;;;;;;;11.07;6.40;;;;;;;;;;4938223;28;20218;-73
2022/02/27 08:11:33;;;;;;;11.23;5.73;;;;;;;;;;4957062;28;20237;-72
2022/02/27 08:14:03;;;;;;;10.13;6.33;;;;;;;;;;4956419;28;20218;-73
2022/02/27 08:16:33;;;;;;;7.77;5.67;;;;;;;;;;4940318;28;20709;-73
2022/02/27 08:19:01;;;;;;;8.77;5.80;;;;;;;;;;4924722;28;20226;-73
2022/02/27 08:21:29;;;;;;;11.70;5.97;;;;;;;;;;4971027;28;20288;-72
2022/02/27 08:23:57;;;;;;;14.37;7.50;;;;;;;;;;4939793;28;20223;-72
2022/02/27 08:26:23;;;;;;;10.43;6.30;;;;;;;;;;4939665;28;20611;-72
2022/02/27 08:28:48;;;;;;;9.67;5.83;;;;;;;;;;4923892;28;20215;-72
2022/02/27 08:31:14;;;;;;;12.73;6.53;;;;;;;;;;4958264;28;20843;-73
2022/02/27 08:33:39;;;;;;;11.43;6.00;;;;;;;;;;4943143;28;20305;-72
2022/02/27 08:36:09;;;;;;;8.73;5.67;;;;;;;;;;4970949;28;20313;-72
2022/02/27 08:38:34;;;;;;;10.87;5.10;;;;;;;;;;4925870;29;20334;-72
2022/02/27 08:41:02;;;;;;;9.70;5.90;;;;;;;;;;4967043;28;20231;-73
2022/02/27 08:43:28;;;;;;;9.57;5.40;;;;;;;;;;4938741;28;20338;-73
2022/02/27 08:45:54;;;;;;;10.57;5.83;;;;;;;;;;4964178;28;20702;-75
2022/02/27 08:48:23;;;;;;;7.53;5.20;;;;;;;;;;4921833;28;20637;-73
2022/02/27 08:50:53;;;;;;;9.40;5.23;;;;;;;;;;4964676;28;20248;-73
2022/02/27 08:53:26;;;;;;;9.10;4.77;;;;;;;;;;4957688;28;20293;-73
2022/02/27 08:55:54;;;;;;;8.47;4.80;;;;;;;;;;4944800;28;20729;-73
2022/02/27 08:58:20;;;;;;;8.80;5.17;;;;;;;;;;4934999;28;20253;-73
2022/02/27 09:00:45;;;;;;;12.03;5.37;;;;;;;;;;4925559;28;20242;-73
2022/02/27 09:03:15;;;;;;;9.23;4.83;;;;;;;;;;4920713;29;20305;-74
2022/02/27 09:05:45;;;;;;;7.37;5.63;;;;;;;;;;4918570;28;20223;-72
2022/02/27 09:08:11;;;;;;;8.50;5.20;;;;;;;;;;4954257;28;20229;-73
2022/02/27 09:10:42;;;;;;;9.93;5.00;;;;;;;;;;4924120;28;20245;-73
2022/02/27 09:13:07;;;;;;;7.60;4.50;;;;;;;;;;4944419;29;20642;-73
2022/02/27 09:15:33;;;;;;;8.97;5.20;;;;;;;;;;4955472;28;20230;-73
2022/02/27 09:17:58;;;;;;;10.23;5.03;;;;;;;;;;4916502;28;20222;-72
2022/02/27 09:20:26;;;;;;;9.20;4.90;;;;;;;;;;4955512;28;20676;-73
2022/02/27 09:22:51;;;;;;;11.10;4.67;;;;;;;;;;4912679;28;20226;-72
2022/02/27 09:25:19;;;;;;;6.83;4.23;;;;;;;;;;4957812;28;20593;-73
2022/02/27 09:27:45;;;;;;;8.97;4.67;;;;;;;;;;4957010;28;20230;-74
2022/02/27 09:30:12;;;;;;;9.93;4.40;;;;;;;;;;4960185;28;20219;-73
2022/02/27 09:32:38;;;;;;;7.43;4.17;;;;;;;;;;4970848;28;20285;-73
2022/02/27 09:35:06;;;;;;;8.03;4.10;;;;;;;;;;4953600;28;20249;-73
2022/02/27 09:37:33;;;;;;;10.13;4.13;;;;;;;;;;4956424;28;20382;-72
2022/02/27 09:39:59;;;;;;;7.37;4.87;;;;;;;;;;4946765;28;20222;-73
2022/02/27 09:42:29;;;;;;;8.17;3.80;;;;;;;;;;4957841;28;20214;-72
2022/02/27 09:44:57;;;;;;;7.10;4.13;;;;;;;;;;4944145;28;20222;-72
2022/02/27 09:47:25;;;;;;;6.60;3.70;;;;;;;;;;4903165;28;20685;-72
2022/02/27 09:49:51;;;;;;;4.47;3.30;;;;;;;;;;4951069;28;20317;-72
2022/02/27 09:52:17;;;;;;;5.70;3.20;;;;;;;;;;4943903;28;20710;-72
2022/02/27 09:54:47;;;;;;;5.40;3.43;;;;;;;;;;4956680;28;20230;-71
2022/02/27 09:57:18;;;;;;;7.70;3.60;;;;;;;;;;4970071;28;20302;-72
2022/02/27 09:59:48;;;;;;;6.67;3.33;;;;;;;;;;4954556;28;20217;-73
2022/02/27 10:02:19;;;;;;;7.43;3.50;;;;;;;;;;4921926;28;20230;-73
2022/02/27 10:04:48;;;;;;;6.17;3.30;;;;;;;;;;4937965;28;20226;-73
2022/02/27 10:07:17;;;;;;;6.20;3.47;;;;;;;;;;4967051;28;20221;-73
2022/02/27 10:09:43;;;;;;;5.23;3.00;;;;;;;;;;4948759;28;20280;-73
2022/02/27 10:12:21;;;;;;;6.10;2.70;;;;;;;;;;4938235;28;20238;-73
2022/02/27 10:15:04;;;;;;;5.33;2.83;;;;;;;;;;4969770;28;20280;-72
2022/02/27 10:17:34;;;;;;;5.73;2.63;;;;;;;;;;4955675;28;20221;-71
2022/02/27 10:20:02;;;;;;;5.10;2.70;;;;;;;;;;4951540;28;20245;-72
2022/02/27 10:22:38;;;;;;;4.90;2.40;;;;;;;;;;4954421;28;20222;-72
2022/02/27 10:25:11;;;;;;;4.33;1.93;;;;;;;;;;4950335;28;20222;-73
2022/02/27 10:27:44;;;;;;;6.03;2.43;;;;;;;;;;4944535;28;20218;-73
2022/02/27 10:30:28;;;;;;;4.73;1.93;;;;;;;;;;4939159;28;20225;-73
2022/02/27 10:33:04;;;;;;;6.63;2.50;;;;;;;;;;4946071;28;20219;-72
2022/02/27 10:35:46;;;;;;;7.07;2.77;;;;;;;;;;4940024;28;20241;-72
2022/02/27 10:38:31;;;;;;;6.97;2.60;;;;;;;;;;4958192;28;20276;-72
2022/02/27 10:40:56;;;;;;;4.83;2.60;;;;;;;;;;4955207;28;20708;-71
2022/02/27 10:43:22;;;;;;;5.40;2.50;;;;;;;;;;4920944;28;20257;-73
2022/02/27 10:46:05;;;;;;;5.40;2.70;;;;;;;;;;4970463;28;20219;-73
2022/02/27 10:48:31;;;;;;;6.60;2.80;;;;;;;;;;4951488;28;20309;-73
2022/02/27 10:51:23;;;;;;;6.03;2.60;;;;;;;;;;4965547;28;20250;-73
2022/02/27 10:53:51;;;;;;;5.60;2.63;;;;;;;;;;4945531;28;20280;-73
2022/02/27 10:56:17;;;;;;;6.67;2.90;;;;;;;;;;4920790;28;20378;-72
2022/02/27 10:58:45;;;;;;;6.03;2.17;;;;;;;;;;4918354;29;20218;-72
2022/02/27 11:01:26;;;;;;;4.23;2.20;;;;;;;;;;4935313;28;20254;-73
2022/02/27 11:03:58;;;;;;;5.37;2.43;;;;;;;;;;4949997;28;20262;-72
2022/02/27 11:06:23;;;;;;;6.17;2.40;;;;;;;;;;4918828;28;20220;-72
2022/02/27 11:08:51;;;;;;;5.77;2.43;;;;;;;;;;4936388;28;20222;-72
2022/02/27 11:11:22;;;;;;;6.87;2.70;;;;;;;;;;4937353;28;20740;-73
2022/02/27 11:13:50;;;;;;;4.60;2.20;;;;;;;;;;4923985;28;20217;-73
2022/02/27 11:16:21;;;;;;;5.27;2.20;;;;;;;;;;4952086;28;20249;-73
2022/02/27 11:18:46;;;;;;;4.87;2.43;;;;;;;;;;4923725;28;20222;-72
2022/02/27 11:21:15;;;;;;;4.83;2.50;;;;;;;;;;4954876;28;20746;-71
2022/02/27 11:23:41;;;;;;;6.03;2.40;;;;;;;;;;4955926;28;20222;-73
2022/02/27 11:26:10;;;;;;;5.80;2.70;;;;;;;;;;4962065;28;20214;-73
2022/02/27 11:28:36;;;;;;;6.63;2.73;;;;;;;;;;4925151;28;20227;-73
2022/02/27 11:31:02;;;;;;;6.97;2.10;;;;;;;;;;4936629;28;20225;-73
2022/02/27 11:33:31;;;;;;;5.67;2.70;;;;;;;;;;4922383;28;20225;-72
2022/02/27 11:36:00;;;;;;;6.67;2.63;;;;;;;;;;4928540;28;20262;-70
2022/02/27 11:38:41;;;;;;;6.83;2.63;;;;;;;;;;4957310;28;20236;-73
2022/02/27 11:41:08;;;;;;;6.93;2.43;;;;;;;;;;4921722;28;20234;-72
2022/02/27 11:43:54;;;;;;;5.63;2.50;;;;;;;;;;4951709;28;20712;-73
2022/02/27 11:46:35;;;;;;;5.93;2.20;;;;;;;;;;4957396;28;20228;-73
2022/02/27 11:49:16;;;;;;;4.77;2.30;;;;;;;;;;4958164;28;20253;-74
2022/02/27 11:51:53;;;;;;;3.53;2.13;;;;;;;;;;4957077;28;20593;-73
2022/02/27 11:54:26;;;;;;;6.00;2.40;;;;;;;;;;4966689;28;20741;-72
2022/02/27 11:57:00;;;;;;;6.00;2.37;;;;;;;;;;4971275;28;20221;-73
2022/02/27 11:59:47;;;;;;;5.83;2.60;;;;;;;;;;4964157;28;20715;-74
2022/02/27 12:02:33;;;;;;;6.47;2.60;;;;;;;;;;4968270;28;20222;-75
2022/02/27 12:05:00;;;;;;;7.13;2.30;;;;;;;;;;4973160;28;20225;-74
2022/02/27 12:07:27;;;;;;;6.07;2.57;;;;;;;;;;4953409;28;20225;-74
2022/02/27 12:09:54;;;;;;;5.27;2.53;;;;;;;;;;4925395;28;20245;-73
2022/02/27 12:12:38;;;;;;;5.03;2.43;;;;;;;;;;4949262;28;20230;-74
2022/02/27 12:15:24;;;;;;;7.63;3.07;;;;;;;;;;4951475;28;20254;-73
2022/02/27 12:17:56;;;;;;;7.10;2.40;;;;;;;;;;4924573;28;20230;-74
2022/02/27 12:20:40;;;;;;;7.43;2.80;;;;;;;;;;4972059;28;20233;-73
2022/02/27 12:23:09;;;;;;;6.13;2.80;;;;;;;;;;4961327;28;20266;-72
2022/02/27 12:25:43;;;;;;;7.00;2.70;;;;;;;;;;4939712;28;20640;-73
2022/02/27 12:28:11;;;;;;;5.50;2.70;;;;;;;;;;4922600;28;20214;-74
2022/02/27 12:30:37;;;;;;;6.90;2.50;;;;;;;;;;4957790;28;20226;-73
2022/02/27 12:33:07;;;;;;;8.20;2.97;;;;;;;;;;4962200;28;20225;-73
2022/02/27 12:35:36;;;;;;;6.30;2.67;;;;;;;;;;4950609;28;20237;-73
2022/02/27 12:38:13;;;;;;;6.63;2.40;;;;;;;;;;4937383;28;20308;-73
2022/02/27 12:40:39;;;;;;;5.77;2.70;;;;;;;;;;4957805;28;20272;-73
2022/02/27 12:43:07;;;;;;;5.60;2.57;;;;;;;;;;4957997;28;20731;-74
2022/02/27 12:45:34;;;;;;;6.20;2.17;;;;;;;;;;4977131;28;20643;-75
2022/02/27 12:48:08;;;;;;;7.87;2.43;;;;;;;;;;4943600;28;20829;-75
2022/02/27 12:50:49;;;;;;;4.80;2.27;;;;;;;;;;4949192;28;20576;-73
2022/02/27 12:53:17;;;;;;;6.00;2.57;;;;;;;;;;4974323;28;20599;-73
2022/02/27 12:55:42;;;;;;;7.07;2.60;;;;;;;;;;4933147;28;20241;-73
2022/02/27 12:58:09;;;;;;;5.17;2.23;;;;;;;;;;4941764;28;20220;-72
2022/02/27 13:00:37;;;;;;;6.37;2.47;;;;;;;;;;4953022;28;20222;-74
2022/02/27 13:03:14;;;;;;;4.47;2.53;;;;;;;;;;4972651;28;20651;-73
2022/02/27 13:05:40;;;;;;;6.30;2.80;;;;;;;;;;4934962;28;21726;-73
2022/02/27 13:08:07;;;;;;;6.87;3.10;;;;;;;;;;4953461;28;20309;-72
2022/02/27 13:10:35;;;;;;;6.43;2.87;;;;;;;;;;4939267;28;20222;-73
2022/02/27 13:13:09;;;;;;;5.97;2.77;;;;;;;;;;4937084;28;20227;-74
2022/02/27 13:15:37;;;;;;;5.10;2.50;;;;;;;;;;4951918;28;20249;-72
2022/02/27 13:18:04;;;;;;;5.07;2.73;;;;;;;;;;4966446;28;20247;-73
2022/02/27 13:20:33;;;;;;;7.67;2.90;;;;;;;;;;4936738;28;20222;-73
2022/02/27 13:23:06;;;;;;;6.83;3.03;;;;;;;;;;4917460;28;20223;-73
2022/02/27 13:25:33;;;;;;;5.10;2.67;;;;;;;;;;4948485;28;20221;-73
2022/02/27 13:28:00;;;;;;;4.23;2.63;;;;;;;;;;4948781;28;20245;-73
2022/02/27 13:30:26;;;;;;;6.57;3.10;;;;;;;;;;4953283;28;20226;-73
2022/02/27 13:32:56;;;;;;;6.77;3.20;;;;;;;;;;4951331;28;20594;-72
2022/02/27 13:35:28;;;;;;;6.33;2.77;;;;;;;;;;4939065;28;20230;-73
2022/02/27 13:38:03;;;;;;;9.00;3.20;;;;;;;;;;4962909;28;20228;-74
2022/02/27 13:40:34;;;;;;;6.33;3.77;;;;;;;;;;4939493;28;20218;-72
2022/02/27 13:43:05;;;;;;;8.00;3.50;;;;;;;;;;4956593;28;20231;-72
2022/02/27 13:45:32;;;;;;;6.53;3.20;;;;;;;;;;4933071;28;20697;-71
2022/02/27 13:48:01;;;;;;;5.60;3.13;;;;;;;;;;4924154;28;20237;-74
2022/02/27 13:50:31;;;;;;;6.30;3.57;;;;;;;;;;4945651;28;20600;-75
2022/02/27 13:53:08;;;;;;;8.17;3.33;;;;;;;;;;4937532;28;20227;-74
2022/02/27 13:55:36;;;;;;;6.77;3.17;;;;;;;;;;4963509;28;20230;-74
2022/02/27 13:58:11;;;;;;;6.67;3.10;;;;;;;;;;4936724;28;20225;-73
2022/02/27 14:00:49;;;;;;;7.20;3.40;;;;;;;;;;4937166;28;20222;-72
2022/02/27 14:03:17;;;;;;;6.97;3.10;;;;;;;;;;4963219;28;20226;-73
2022/02/27 14:06:04;;;;;;;8.37;3.50;;;;;;;;;;4940023;28;20269;-72
2022/02/27 14:08:37;;;;;;;7.47;3.03;;;;;;;;;;4937569;28;20234;-72
2022/02/27 14:11:11;;;;;;;5.17;3.17;;;;;;;;;;4949048;28;20218;-73
2022/02/27 14:13:47;;;;;;;6.77;2.63;;;;;;;;;;4954642;28;20235;-74
2022/02/27 14:16:24;;;;;;;5.67;2.77;;;;;;;;;;4929497;28;20233;-73
2022/02/27 14:18:52;;;;;;;5.50;3.03;;;;;;;;;;4949223;28;20639;-72
2022/02/27 14:21:25;;;;;;;5.83;2.63;;;;;;;;;;4936491;28;22114;-72
2022/02/27 14:24:04;;;;;;;4.07;2.50;;;;;;;;;;4964802;28;20231;-73
2022/02/27 14:26:37;;;;;;;6.07;2.70;;;;;;;;;;4950553;28;20226;-73
2022/02/27 14:29:06;;;;;;;5.40;2.40;;;;;;;;;;4953121;28;20313;-73
2022/02/27 14:31:49;;;;;;;6.80;2.70;;;;;;;;;;4934961;29;20222;-73
2022/02/27 14:34:21;;;;;;;4.70;2.50;;;;;;;;;;4953080;28;20676;-73
2022/02/27 14:36:49;;;;;;;5.40;2.70;;;;;;;;;;4936417;28;20290;-73
2022/02/27 14:39:23;;;;;;;6.30;2.80;;;;;;;;;;4938122;28;20487;-73
2022/02/27 14:41:49;;;;;;;6.27;2.60;;;;;;;;;;4949471;28;20222;-72
2022/02/27 14:44:14;;;;;;;6.30;2.20;;;;;;;;;;4897115;28;20226;-72
2022/02/27 14:46:44;;;;;;;4.77;1.90;;;;;;;;;;4952119;28;20301;-72
2022/02/27 14:49:11;;;;;;;3.97;2.20;;;;;;;;;;4962160;28;20761;-73
2022/02/27 14:51:39;;;;;;;6.27;2.60;;;;;;;;;;4951722;28;20592;-74